sensor_id;sensor_type;location;lat;lon;timestamp;pressure;altitude;pressure_sealevel;temperature;humidity
8416;BME280;4245;42.120;24.732;2023-07-02T00:01:50;98490.84;;;22.38;100.00
8416;BME280;4245;42.120;24.732;2023-07-02T00:04:16;98497.28;;;22.37;100.00
8416;BME280;4245;42.120;24.732;2023-07-02T00:06:45;98495.41;;;22.31;100.00
8416;BME280;4245;42.120;24.732;2023-07-02T00:09:12;98497.50;;;22.35;100.00
8416;BME280;4245;42.120;24.732;2023-07-02T00:11:39;98488.66;;;22.14;100.00
8416;BME280;4245;42.120;24.732;2023-07-02T00:14:08;98490.03;;;21.96;100.00
8416;BME280;4245;42.120;24.732;2023-07-02T00:16:37;98492.81;;;21.88;100.00
8416;BME280;4245;42.120;24.732;2023-07-02T00:19:04;98485.53;;;21.82;100.00
8416;BME280;4245;42.120;24.732;2023-07-02T00:21:31;98492.25;;;21.93;100.00
8416;BME280;4245;42.120;24.732;2023-07-02T00:23:58;98501.22;;;21.93;100.00
8416;BME280;4245;42.120;24.732;2023-07-02T00:26:26;98495.72;;;21.52;100.00
8416;BME280;4245;42.120;24.732;2023-07-02T00:28:53;98499.78;;;21.42;100.00
8416;BME280;4245;42.120;24.732;2023-07-02T00:31:22;98502.16;;;21.30;100.00
8416;BME280;4245;42.120;24.732;2023-07-02T00:33:49;98493.97;;;21.45;100.00
8416;BME280;4245;42.120;24.732;2023-07-02T00:36:16;98493.03;;;21.10;100.00
8416;BME280;4245;42.120;24.732;2023-07-02T00:38:44;98490.06;;;21.05;100.00
8416;BME280;4245;42.120;24.732;2023-07-02T00:41:11;98490.47;;;21.23;100.00
8416;BME280;4245;42.120;24.732;2023-07-02T00:43:38;98495.66;;;21.46;100.00
8416;BME280;4245;42.120;24.732;2023-07-02T00:46:09;98500.19;;;21.66;100.00
8416;BME280;4245;42.120;24.732;2023-07-02T00:48:39;98498.16;;;21.75;100.00
8416;BME280;4245;42.120;24.732;2023-07-02T00:51:07;98503.28;;;21.91;100.00
8416;BME280;4245;42.120;24.732;2023-07-02T00:53:36;98494.63;;;21.75;100.00
8416;BME280;4245;42.120;24.732;2023-07-02T00:56:02;98489.28;;;21.53;100.00
8416;BME280;4245;42.120;24.732;2023-07-02T00:58:29;98484.91;;;21.52;100.00
8416;BME280;4245;42.120;24.732;2023-07-02T01:00:56;98481.50;;;21.72;100.00
8416;BME280;4245;42.120;24.732;2023-07-02T01:03:23;98486.66;;;21.66;100.00
8416;BME280;4245;42.120;24.732;2023-07-02T01:05:51;98487.53;;;21.74;100.00
8416;BME280;4245;42.120;24.732;2023-07-02T01:08:18;98487.19;;;21.55;100.00
8416;BME280;4245;42.120;24.732;2023-07-02T01:10:45;98487.50;;;21.67;100.00
8416;BME280;4245;42.120;24.732;2023-07-02T01:13:16;98491.19;;;21.59;100.00
8416;BME280;4245;42.120;24.732;2023-07-02T01:15:46;98485.59;;;21.33;100.00
8416;BME280;4245;42.120;24.732;2023-07-02T01:18:14;98487.63;;;21.31;100.00
8416;BME280;4245;42.120;24.732;2023-07-02T01:20:43;98496.13;;;21.28;100.00
8416;BME280;4245;42.120;24.732;2023-07-02T01:23:11;98482.81;;;21.27;100.00
8416;BME280;4245;42.120;24.732;2023-07-02T01:25:38;98473.88;;;21.26;100.00
8416;BME280;4245;42.120;24.732;2023-07-02T01:28:05;98472.84;;;21.27;100.00
8416;BME280;4245;42.120;24.732;2023-07-02T01:30:31;98474.84;;;21.18;100.00
8416;BME280;4245;42.120;24.732;2023-07-02T01:32:58;98470.38;;;21.11;100.00
8416;BME280;4245;42.120;24.732;2023-07-02T01:35:25;98473.72;;;21.13;100.00
8416;BME280;4245;42.120;24.732;2023-07-02T01:37:53;98478.13;;;21.14;100.00
8416;BME280;4245;42.120;24.732;2023-07-02T01:40:20;98464.72;;;21.06;100.00
8416;BME280;4245;42.120;24.732;2023-07-02T01:42:46;98462.03;;;21.06;100.00
8416;BME280;4245;42.120;24.732;2023-07-02T01:45:13;98455.50;;;21.15;100.00
8416;BME280;4245;42.120;24.732;2023-07-02T01:47:40;98458.91;;;21.23;100.00
8416;BME280;4245;42.120;24.732;2023-07-02T01:50:07;98464.34;;;21.30;100.00
8416;BME280;4245;42.120;24.732;2023-07-02T01:52:34;98467.97;;;21.16;100.00
8416;BME280;4245;42.120;24.732;2023-07-02T01:55:03;98463.41;;;21.16;100.00
8416;BME280;4245;42.120;24.732;2023-07-02T01:57:30;98444.16;;;21.26;100.00
8416;BME280;4245;42.120;24.732;2023-07-02T01:59:57;98451.75;;;21.37;100.00
8416;BME280;4245;42.120;24.732;2023-07-02T02:02:24;98454.25;;;21.39;100.00
8416;BME280;4245;42.120;24.732;2023-07-02T02:04:50;98452.66;;;21.23;100.00
8416;BME280;4245;42.120;24.732;2023-07-02T02:07:17;98450.84;;;21.09;100.00
8416;BME280;4245;42.120;24.732;2023-07-02T02:09:44;98453.72;;;21.07;100.00
8416;BME280;4245;42.120;24.732;2023-07-02T02:12:12;98451.22;;;21.06;100.00
8416;BME280;4245;42.120;24.732;2023-07-02T02:14:40;98450.59;;;21.04;100.00
8416;BME280;4245;42.120;24.732;2023-07-02T02:17:07;98454.50;;;21.01;100.00
8416;BME280;4245;42.120;24.732;2023-07-02T02:19:34;98451.56;;;21.17;100.00
8416;BME280;4245;42.120;24.732;2023-07-02T02:22:01;98451.56;;;21.39;100.00
8416;BME280;4245;42.120;24.732;2023-07-02T02:24:28;98448.75;;;21.53;100.00
8416;BME280;4245;42.120;24.732;2023-07-02T02:26:55;98445.47;;;21.64;100.00
8416;BME280;4245;42.120;24.732;2023-07-02T02:29:23;98448.88;;;21.73;100.00
8416;BME280;4245;42.120;24.732;2023-07-02T02:31:49;98454.13;;;21.81;100.00
8416;BME280;4245;42.120;24.732;2023-07-02T02:34:16;98458.44;;;21.76;100.00
8416;BME280;4245;42.120;24.732;2023-07-02T02:36:43;98466.97;;;21.73;100.00
8416;BME280;4245;42.120;24.732;2023-07-02T02:39:10;98462.66;;;21.85;100.00
8416;BME280;4245;42.120;24.732;2023-07-02T02:41:36;98476.19;;;21.85;100.00
8416;BME280;4245;42.120;24.732;2023-07-02T02:44:03;98476.75;;;22.01;100.00
8416;BME280;4245;42.120;24.732;2023-07-02T02:46:32;98470.31;;;22.02;100.00
8416;BME280;4245;42.120;24.732;2023-07-02T02:48:58;98474.06;;;22.08;100.00
8416;BME280;4245;42.120;24.732;2023-07-02T02:51:25;98477.47;;;22.23;100.00
8416;BME280;4245;42.120;24.732;2023-07-02T02:53:52;98485.50;;;22.10;100.00
8416;BME280;4245;42.120;24.732;2023-07-02T02:56:19;98484.63;;;21.96;100.00
8416;BME280;4245;42.120;24.732;2023-07-02T02:58:45;98496.84;;;21.92;100.00
8416;BME280;4245;42.120;24.732;2023-07-02T03:01:12;98496.78;;;21.86;100.00
8416;BME280;4245;42.120;24.732;2023-07-02T03:03:42;98513.06;;;21.92;100.00
8416;BME280;4245;42.120;24.732;2023-07-02T03:06:11;98514.56;;;21.74;100.00
8416;BME280;4245;42.120;24.732;2023-07-02T03:08:39;98510.66;;;21.76;100.00
8416;BME280;4245;42.120;24.732;2023-07-02T03:11:06;98512.69;;;21.67;100.00
8416;BME280;4245;42.120;24.732;2023-07-02T03:13:33;98510.75;;;21.61;100.00
8416;BME280;4245;42.120;24.732;2023-07-02T03:15:59;98515.91;;;21.56;100.00
8416;BME280;4245;42.120;24.732;2023-07-02T03:18:26;98514.38;;;21.47;100.00
8416;BME280;4245;42.120;24.732;2023-07-02T03:20:54;98513.13;;;21.50;100.00
8416;BME280;4245;42.120;24.732;2023-07-02T03:23:21;98532.97;;;21.57;100.00
8416;BME280;4245;42.120;24.732;2023-07-02T03:25:48;98533.94;;;21.77;100.00
8416;BME280;4245;42.120;24.732;2023-07-02T03:28:15;98534.88;;;21.63;100.00
8416;BME280;4245;42.120;24.732;2023-07-02T03:30:41;98537.09;;;21.53;100.00
8416;BME280;4245;42.120;24.732;2023-07-02T03:33:09;98534.16;;;21.54;100.00
8416;BME280;4245;42.120;24.732;2023-07-02T03:35:36;98543.25;;;21.47;100.00
8416;BME280;4245;42.120;24.732;2023-07-02T03:38:04;98547.81;;;21.46;100.00
8416;BME280;4245;42.120;24.732;2023-07-02T03:40:31;98540.13;;;21.43;100.00
8416;BME280;4245;42.120;24.732;2023-07-02T03:42:58;98538.13;;;21.31;100.00
8416;BME280;4245;42.120;24.732;2023-07-02T03:45:25;98537.53;;;21.35;100.00
8416;BME280;4245;42.120;24.732;2023-07-02T03:47:51;98533.88;;;21.43;100.00
8416;BME280;4245;42.120;24.732;2023-07-02T03:50:18;98539.91;;;21.45;100.00
8416;BME280;4245;42.120;24.732;2023-07-02T03:52:45;98537.47;;;21.50;100.00
8416;BME280;4245;42.120;24.732;2023-07-02T03:55:14;98538.09;;;21.52;100.00
8416;BME280;4245;42.120;24.732;2023-07-02T03:57:40;98528.97;;;21.53;100.00
8416;BME280;4245;42.120;24.732;2023-07-02T04:00:08;98528.06;;;21.46;100.00
8416;BME280;4245;42.120;24.732;2023-07-02T04:02:36;98529.81;;;21.53;100.00
8416;BME280;4245;42.120;24.732;2023-07-02T04:05:04;98535.84;;;21.55;100.00
8416;BME280;4245;42.120;24.732;2023-07-02T04:07:31;98536.25;;;21.52;100.00
8416;BME280;4245;42.120;24.732;2023-07-02T04:09:58;98539.47;;;21.41;100.00
8416;BME280;4245;42.120;24.732;2023-07-02T04:12:27;98535.22;;;21.53;100.00
8416;BME280;4245;42.120;24.732;2023-07-02T04:14:54;98528.97;;;21.53;100.00
8416;BME280;4245;42.120;24.732;2023-07-02T04:17:20;98535.91;;;21.62;100.00
8416;BME280;4245;42.120;24.732;2023-07-02T04:19:47;98535.81;;;21.77;100.00
8416;BME280;4245;42.120;24.732;2023-07-02T04:22:14;98538.13;;;21.80;100.00
8416;BME280;4245;42.120;24.732;2023-07-02T04:24:41;98544.19;;;21.82;100.00
8416;BME280;4245;42.120;24.732;2023-07-02T04:27:08;98541.47;;;21.82;100.00
8416;BME280;4245;42.120;24.732;2023-07-02T04:29:36;98544.00;;;21.90;100.00
8416;BME280;4245;42.120;24.732;2023-07-02T04:32:03;98544.44;;;22.15;100.00
8416;BME280;4245;42.120;24.732;2023-07-02T04:34:30;98549.31;;;22.32;100.00
8416;BME280;4245;42.120;24.732;2023-07-02T04:36:57;98552.09;;;22.52;100.00
8416;BME280;4245;42.120;24.732;2023-07-02T04:39:23;98545.94;;;22.65;100.00
8416;BME280;4245;42.120;24.732;2023-07-02T04:41:50;98546.88;;;22.85;100.00
8416;BME280;4245;42.120;24.732;2023-07-02T04:44:18;98534.97;;;22.86;100.00
8416;BME280;4245;42.120;24.732;2023-07-02T04:46:56;98540.66;;;22.98;100.00
8416;BME280;4245;42.120;24.732;2023-07-02T04:49:23;98566.03;;;22.90;100.00
8416;BME280;4245;42.120;24.732;2023-07-02T04:51:50;98575.91;;;23.04;100.00
8416;BME280;4245;42.120;24.732;2023-07-02T04:54:20;98573.56;;;23.01;100.00
8416;BME280;4245;42.120;24.732;2023-07-02T04:56:47;98570.47;;;23.04;100.00
8416;BME280;4245;42.120;24.732;2023-07-02T04:59:14;98577.00;;;23.23;100.00
8416;BME280;4245;42.120;24.732;2023-07-02T05:01:41;98569.06;;;23.28;100.00
8416;BME280;4245;42.120;24.732;2023-07-02T05:04:10;98568.09;;;23.55;100.00
8416;BME280;4245;42.120;24.732;2023-07-02T05:06:37;98570.38;;;23.65;100.00
8416;BME280;4245;42.120;24.732;2023-07-02T05:09:05;98574.16;;;23.57;100.00
8416;BME280;4245;42.120;24.732;2023-07-02T05:11:31;98586.44;;;23.60;100.00
8416;BME280;4245;42.120;24.732;2023-07-02T05:13:58;98591.22;;;23.45;100.00
8416;BME280;4245;42.120;24.732;2023-07-02T05:16:25;98582.06;;;23.65;100.00
8416;BME280;4245;42.120;24.732;2023-07-02T05:18:52;98589.59;;;23.70;100.00
8416;BME280;4245;42.120;24.732;2023-07-02T05:21:20;98598.16;;;23.80;100.00
8416;BME280;4245;42.120;24.732;2023-07-02T05:23:47;98597.94;;;23.75;100.00
8416;BME280;4245;42.120;24.732;2023-07-02T05:26:14;98601.69;;;23.80;100.00
8416;BME280;4245;42.120;24.732;2023-07-02T05:28:41;98617.97;;;23.94;100.00
8416;BME280;4245;42.120;24.732;2023-07-02T05:31:07;98622.16;;;24.29;100.00
8416;BME280;4245;42.120;24.732;2023-07-02T05:33:34;98626.31;;;24.32;100.00
8416;BME280;4245;42.120;24.732;2023-07-02T05:36:01;98633.81;;;24.49;100.00
8416;BME280;4245;42.120;24.732;2023-07-02T05:38:29;98641.94;;;24.56;100.00
8416;BME280;4245;42.120;24.732;2023-07-02T05:40:56;98644.91;;;24.35;100.00
8416;BME280;4245;42.120;24.732;2023-07-02T05:43:23;98645.09;;;24.33;100.00
8416;BME280;4245;42.120;24.732;2023-07-02T05:45:51;98646.97;;;24.13;100.00
8416;BME280;4245;42.120;24.732;2023-07-02T05:48:17;98649.88;;;23.92;100.00
8416;BME280;4245;42.120;24.732;2023-07-02T05:50:44;98632.94;;;23.63;100.00
8416;BME280;4245;42.120;24.732;2023-07-02T05:53:11;98627.31;;;23.58;100.00
8416;BME280;4245;42.120;24.732;2023-07-02T05:55:40;98620.22;;;23.64;100.00
8416;BME280;4245;42.120;24.732;2023-07-02T05:58:07;98614.81;;;23.77;100.00
8416;BME280;4245;42.120;24.732;2023-07-02T06:00:33;98622.31;;;24.01;100.00
8416;BME280;4245;42.120;24.732;2023-07-02T06:03:00;98634.84;;;24.02;100.00
8416;BME280;4245;42.120;24.732;2023-07-02T06:05:27;98642.56;;;23.92;100.00
8416;BME280;4245;42.120;24.732;2023-07-02T06:07:54;98640.72;;;23.99;100.00
8416;BME280;4245;42.120;24.732;2023-07-02T06:10:21;98624.22;;;23.94;100.00
8416;BME280;4245;42.120;24.732;2023-07-02T06:12:50;98615.66;;;23.97;100.00
8416;BME280;4245;42.120;24.732;2023-07-02T06:15:17;98625.28;;;24.26;100.00
8416;BME280;4245;42.120;24.732;2023-07-02T06:17:44;98623.19;;;24.35;100.00
8416;BME280;4245;42.120;24.732;2023-07-02T06:20:11;98623.34;;;24.46;100.00
8416;BME280;4245;42.120;24.732;2023-07-02T06:22:38;98622.84;;;24.82;100.00
8416;BME280;4245;42.120;24.732;2023-07-02T06:25:07;98624.78;;;25.26;100.00
8416;BME280;4245;42.120;24.732;2023-07-02T06:27:34;98624.34;;;25.67;100.00
8416;BME280;4245;42.120;24.732;2023-07-02T06:30:03;98613.81;;;26.02;100.00
8416;BME280;4245;42.120;24.732;2023-07-02T06:32:30;98607.56;;;26.20;100.00
8416;BME280;4245;42.120;24.732;2023-07-02T06:34:57;98611.22;;;26.14;100.00
8416;BME280;4245;42.120;24.732;2023-07-02T06:37:24;98611.13;;;26.27;100.00
8416;BME280;4245;42.120;24.732;2023-07-02T06:39:50;98615.09;;;26.24;100.00
8416;BME280;4245;42.120;24.732;2023-07-02T06:42:17;98610.13;;;26.15;100.00
8416;BME280;4245;42.120;24.732;2023-07-02T06:47:21;98620.44;;;26.74;100.00
8416;BME280;4245;42.120;24.732;2023-07-02T06:49:47;98620.44;;;27.29;100.00
8416;BME280;4245;42.120;24.732;2023-07-02T06:52:14;98621.78;;;27.67;100.00
8416;BME280;4245;42.120;24.732;2023-07-02T06:54:41;98611.97;;;27.90;100.00
8416;BME280;4245;42.120;24.732;2023-07-02T06:57:08;98612.03;;;28.13;100.00
8416;BME280;4245;42.120;24.732;2023-07-02T06:59:34;98617.88;;;28.28;100.00
8416;BME280;4245;42.120;24.732;2023-07-02T07:02:01;98612.53;;;28.22;100.00
8416;BME280;4245;42.120;24.732;2023-07-02T07:04:30;98616.63;;;28.01;100.00
8416;BME280;4245;42.120;24.732;2023-07-02T07:06:57;98620.06;;;28.08;100.00
8416;BME280;4245;42.120;24.732;2023-07-02T07:09:24;98614.75;;;28.13;89.27
8416;BME280;4245;42.120;24.732;2023-07-02T07:11:51;98613.19;;;28.05;89.28
8416;BME280;4245;42.120;24.732;2023-07-02T07:14:17;98603.28;;;28.11;89.12
8416;BME280;4245;42.120;24.732;2023-07-02T07:16:44;98616.69;;;28.13;82.35
8416;BME280;4245;42.120;24.732;2023-07-02T07:19:11;98616.75;;;28.06;81.76
8416;BME280;4245;42.120;24.732;2023-07-02T07:21:39;98613.19;;;28.05;82.59
8416;BME280;4245;42.120;24.732;2023-07-02T07:24:06;98615.72;;;28.19;80.37
8416;BME280;4245;42.120;24.732;2023-07-02T07:26:33;98611.28;;;27.94;82.29
8416;BME280;4245;42.120;24.732;2023-07-02T07:29:00;98619.34;;;27.89;80.12
8416;BME280;4245;42.120;24.732;2023-07-02T07:31:26;98621.63;;;27.92;80.21
8416;BME280;4245;42.120;24.732;2023-07-02T07:33:53;98616.47;;;27.73;82.91
8416;BME280;4245;42.120;24.732;2023-07-02T07:36:20;98616.16;;;27.92;82.20
8416;BME280;4245;42.120;24.732;2023-07-02T07:38:48;98617.03;;;28.16;80.06
8416;BME280;4245;42.120;24.732;2023-07-02T07:41:15;98615.03;;;28.35;79.51
8416;BME280;4245;42.120;24.732;2023-07-02T07:43:42;98619.53;;;28.64;78.11
8416;BME280;4245;42.120;24.732;2023-07-02T07:46:09;98605.84;;;29.27;74.91
8416;BME280;4245;42.120;24.732;2023-07-02T07:48:36;98600.31;;;29.84;70.94
8416;BME280;4245;42.120;24.732;2023-07-02T07:51:03;98598.13;;;29.98;68.04
8416;BME280;4245;42.120;24.732;2023-07-02T07:53:30;98592.66;;;30.14;66.78
8416;BME280;4245;42.120;24.732;2023-07-02T08:11:15;98587.88;;;30.43;61.99
8416;BME280;4245;42.120;24.732;2023-07-02T08:13:42;98584.56;;;30.58;62.71
8416;BME280;4245;42.120;24.732;2023-07-02T08:16:09;98587.91;;;31.03;61.50
8416;BME280;4245;42.120;24.732;2023-07-02T08:18:36;98598.72;;;31.37;60.29
8416;BME280;4245;42.120;24.732;2023-07-02T08:21:02;98594.97;;;31.70;58.73
8416;BME280;4245;42.120;24.732;2023-07-02T08:23:31;98586.22;;;32.05;58.07
8416;BME280;4245;42.120;24.732;2023-07-02T08:25:58;98597.47;;;32.77;55.93
8416;BME280;4245;42.120;24.732;2023-07-02T08:28:26;98595.13;;;33.06;54.17
8416;BME280;4245;42.120;24.732;2023-07-02T08:30:53;98590.31;;;33.53;53.15
8416;BME280;4245;42.120;24.732;2023-07-02T08:33:20;98582.66;;;33.91;51.30
8416;BME280;4245;42.120;24.732;2023-07-02T08:35:46;98585.13;;;33.77;51.86
8416;BME280;4245;42.120;24.732;2023-07-02T08:38:13;98587.56;;;33.53;52.41
8416;BME280;4245;42.120;24.732;2023-07-02T08:40:40;98586.72;;;33.43;51.36
8416;BME280;4245;42.120;24.732;2023-07-02T08:43:07;98591.53;;;33.05;51.35
8416;BME280;4245;42.120;24.732;2023-07-02T08:45:35;98588.41;;;32.82;50.94
8416;BME280;4245;42.120;24.732;2023-07-02T08:48:03;98588.66;;;32.80;51.91
8416;BME280;4245;42.120;24.732;2023-07-02T08:50:30;98585.75;;;33.12;50.71
8416;BME280;4245;42.120;24.732;2023-07-02T08:52:57;98586.50;;;32.45;51.20
8416;BME280;4245;42.120;24.732;2023-07-02T08:55:24;98586.44;;;32.35;51.91
8416;BME280;4245;42.120;24.732;2023-07-02T08:57:53;98583.38;;;31.95;53.16
8416;BME280;4245;42.120;24.732;2023-07-02T09:00:20;98583.16;;;30.99;55.63
8416;BME280;4245;42.120;24.732;2023-07-02T09:02:49;98591.22;;;30.84;56.41
8416;BME280;4245;42.120;24.732;2023-07-02T09:05:16;98589.34;;;30.89;57.63
8416;BME280;4245;42.120;24.732;2023-07-02T09:07:44;98580.06;;;31.12;55.90
8416;BME280;4245;42.120;24.732;2023-07-02T09:10:11;98586.34;;;31.34;55.57
8416;BME280;4245;42.120;24.732;2023-07-02T09:12:38;98592.53;;;31.46;55.12
8416;BME280;4245;42.120;24.732;2023-07-02T09:15:05;98584.44;;;31.62;55.19
8416;BME280;4245;42.120;24.732;2023-07-02T09:17:34;98590.59;;;32.38;53.12
8416;BME280;4245;42.120;24.732;2023-07-02T09:20:04;98572.66;;;32.30;51.46
8416;BME280;4245;42.120;24.732;2023-07-02T09:22:33;98572.72;;;31.71;53.77
8416;BME280;4245;42.120;24.732;2023-07-02T09:25:01;98579.28;;;31.97;52.93
8416;BME280;4245;42.120;24.732;2023-07-02T09:27:34;98578.78;;;32.05;52.58
8416;BME280;4245;42.120;24.732;2023-07-02T09:30:06;98571.06;;;32.02;53.02
8416;BME280;4245;42.120;24.732;2023-07-02T09:32:33;98566.34;;;32.29;53.01
8416;BME280;4245;42.120;24.732;2023-07-02T09:35:02;98563.44;;;32.46;52.63
8416;BME280;4245;42.120;24.732;2023-07-02T09:37:30;98562.56;;;32.88;50.79
8416;BME280;4245;42.120;24.732;2023-07-02T09:39:57;98571.78;;;33.18;50.45
8416;BME280;4245;42.120;24.732;2023-07-02T09:42:25;98570.47;;;33.46;49.61
8416;BME280;4245;42.120;24.732;2023-07-02T09:44:52;98574.41;;;33.96;48.53
8416;BME280;4245;42.120;24.732;2023-07-02T09:47:21;98565.03;;;33.82;47.58
8416;BME280;4245;42.120;24.732;2023-07-02T09:49:53;98574.56;;;33.34;48.72
8416;BME280;4245;42.120;24.732;2023-07-02T09:52:22;98585.72;;;33.02;49.28
8416;BME280;4245;42.120;24.732;2023-07-02T09:54:49;98571.13;;;32.96;49.94
8416;BME280;4245;42.120;24.732;2023-07-02T09:57:16;98579.34;;;32.86;49.66
8416;BME280;4245;42.120;24.732;2023-07-02T09:59:43;98570.78;;;32.35;51.24
8416;BME280;4245;42.120;24.732;2023-07-02T10:02:10;98569.25;;;32.13;52.37
8416;BME280;4245;42.120;24.732;2023-07-02T10:04:40;98573.19;;;31.90;53.62
8416;BME280;4245;42.120;24.732;2023-07-02T10:07:08;98569.78;;;31.78;54.66
8416;BME280;4245;42.120;24.732;2023-07-02T10:09:37;98576.72;;;31.85;54.35
8416;BME280;4245;42.120;24.732;2023-07-02T10:12:18;98568.38;;;31.75;54.80
8416;BME280;4245;42.120;24.732;2023-07-02T10:14:46;98562.94;;;31.54;54.68
8416;BME280;4245;42.120;24.732;2023-07-02T10:17:23;98572.78;;;31.49;54.65
8416;BME280;4245;42.120;24.732;2023-07-02T10:19:50;98579.91;;;31.24;54.83
8416;BME280;4245;42.120;24.732;2023-07-02T10:22:17;98576.81;;;30.98;54.68
8416;BME280;4245;42.120;24.732;2023-07-02T10:24:52;98579.59;;;30.38;57.86
8416;BME280;4245;42.120;24.732;2023-07-02T10:27:20;98583.50;;;30.26;58.61
8416;BME280;4245;42.120;24.732;2023-07-02T10:29:49;98584.09;;;29.94;60.21
8416;BME280;4245;42.120;24.732;2023-07-02T10:32:26;98575.84;;;29.61;60.92
8416;BME280;4245;42.120;24.732;2023-07-02T10:34:53;98571.34;;;29.38;62.83
8416;BME280;4245;42.120;24.732;2023-07-02T10:37:20;98567.47;;;29.11;64.81
8416;BME280;4245;42.120;24.732;2023-07-02T10:39:47;98564.84;;;28.87;66.78
8416;BME280;4245;42.120;24.732;2023-07-02T10:42:15;98564.88;;;28.64;69.03
8416;BME280;4245;42.120;24.732;2023-07-02T10:44:50;98570.94;;;28.43;71.19
8416;BME280;4245;42.120;24.732;2023-07-02T10:47:17;98557.19;;;28.26;73.75
8416;BME280;4245;42.120;24.732;2023-07-02T10:49:44;98557.63;;;27.77;82.93
8416;BME280;4245;42.120;24.732;2023-07-02T10:52:11;98580.72;;;26.85;88.96
8416;BME280;4245;42.120;24.732;2023-07-02T10:54:42;98584.44;;;25.86;100.00
8416;BME280;4245;42.120;24.732;2023-07-02T10:57:09;98596.00;;;25.12;100.00
8416;BME280;4245;42.120;24.732;2023-07-02T10:59:38;98580.13;;;24.45;100.00
8416;BME280;4245;42.120;24.732;2023-07-02T11:02:05;98579.75;;;23.82;100.00
8416;BME280;4245;42.120;24.732;2023-07-02T11:04:33;98590.41;;;23.57;100.00
8416;BME280;4245;42.120;24.732;2023-07-02T11:07:00;98569.06;;;23.21;100.00
8416;BME280;4245;42.120;24.732;2023-07-02T11:09:27;98541.00;;;22.81;100.00
8416;BME280;4245;42.120;24.732;2023-07-02T11:11:55;98535.50;;;23.29;100.00
8416;BME280;4245;42.120;24.732;2023-07-02T11:14:29;98541.00;;;23.81;100.00
8416;BME280;4245;42.120;24.732;2023-07-02T11:16:58;98561.44;;;23.91;100.00
8416;BME280;4245;42.120;24.732;2023-07-02T11:19:25;98562.78;;;24.52;100.00
8416;BME280;4245;42.120;24.732;2023-07-02T11:21:53;98570.94;;;24.46;100.00
8416;BME280;4245;42.120;24.732;2023-07-02T11:24:30;98551.34;;;24.44;100.00
8416;BME280;4245;42.120;24.732;2023-07-02T11:26:57;98552.63;;;24.92;100.00
8416;BME280;4245;42.120;24.732;2023-07-02T11:29:24;98542.00;;;25.22;100.00
8416;BME280;4245;42.120;24.732;2023-07-02T11:31:52;98539.78;;;25.37;100.00
8416;BME280;4245;42.120;24.732;2023-07-02T11:34:21;98538.69;;;25.45;100.00
8416;BME280;4245;42.120;24.732;2023-07-02T11:36:48;98547.03;;;25.50;100.00
8416;BME280;4245;42.120;24.732;2023-07-02T11:39:15;98546.78;;;25.51;100.00
8416;BME280;4245;42.120;24.732;2023-07-02T11:41:43;98543.56;;;25.68;100.00
8416;BME280;4245;42.120;24.732;2023-07-02T11:44:10;98548.28;;;25.79;100.00
8416;BME280;4245;42.120;24.732;2023-07-02T11:46:37;98549.00;;;25.92;100.00
8416;BME280;4245;42.120;24.732;2023-07-02T11:49:04;98557.88;;;25.25;100.00
8416;BME280;4245;42.120;24.732;2023-07-02T11:51:35;98548.84;;;25.31;100.00
8416;BME280;4245;42.120;24.732;2023-07-02T11:54:02;98553.41;;;24.99;100.00
8416;BME280;4245;42.120;24.732;2023-07-02T11:56:29;98558.06;;;24.86;100.00
8416;BME280;4245;42.120;24.732;2023-07-02T11:58:56;98554.97;;;24.69;100.00
8416;BME280;4245;42.120;24.732;2023-07-02T12:01:22;98544.47;;;24.35;100.00
8416;BME280;4245;42.120;24.732;2023-07-02T12:03:49;98533.50;;;24.61;100.00
8416;BME280;4245;42.120;24.732;2023-07-02T12:06:16;98541.16;;;24.77;100.00
8416;BME280;4245;42.120;24.732;2023-07-02T12:08:45;98539.09;;;24.73;100.00
8416;BME280;4245;42.120;24.732;2023-07-02T12:11:12;98544.19;;;24.56;100.00
8416;BME280;4245;42.120;24.732;2023-07-02T12:13:38;98532.91;;;24.59;100.00
8416;BME280;4245;42.120;24.732;2023-07-02T12:16:05;98521.91;;;24.85;100.00
8416;BME280;4245;42.120;24.732;2023-07-02T12:18:32;98513.69;;;25.61;100.00
8416;BME280;4245;42.120;24.732;2023-07-02T12:20:59;98511.53;;;26.86;100.00
8416;BME280;4245;42.120;24.732;2023-07-02T12:23:26;98517.28;;;28.25;100.00
8416;BME280;4245;42.120;24.732;2023-07-02T12:25:54;98529.38;;;29.32;100.00
8416;BME280;4245;42.120;24.732;2023-07-02T12:28:21;98525.00;;;29.65;100.00
8416;BME280;4245;42.120;24.732;2023-07-02T12:30:49;98531.50;;;29.02;100.00
8416;BME280;4245;42.120;24.732;2023-07-02T12:33:16;98527.16;;;29.18;100.00
8416;BME280;4245;42.120;24.732;2023-07-02T12:35:43;98525.44;;;29.28;100.00
8416;BME280;4245;42.120;24.732;2023-07-02T12:38:09;98519.19;;;29.78;100.00
8416;BME280;4245;42.120;24.732;2023-07-02T12:40:36;98512.94;;;29.32;100.00
8416;BME280;4245;42.120;24.732;2023-07-02T12:43:04;98519.47;;;28.75;100.00
8416;BME280;4245;42.120;24.732;2023-07-02T12:45:31;98511.09;;;27.72;100.00
8416;BME280;4245;42.120;24.732;2023-07-02T12:47:59;98503.72;;;27.60;100.00
8416;BME280;4245;42.120;24.732;2023-07-02T12:50:25;98503.38;;;27.80;100.00
8416;BME280;4245;42.120;24.732;2023-07-02T12:52:52;98496.50;;;27.89;100.00
8416;BME280;4245;42.120;24.732;2023-07-02T12:55:19;98504.47;;;27.67;100.00
8416;BME280;4245;42.120;24.732;2023-07-02T12:57:46;98501.69;;;27.56;100.00
8416;BME280;4245;42.120;24.732;2023-07-02T13:00:15;98494.25;;;27.63;100.00
8416;BME280;4245;42.120;24.732;2023-07-02T13:02:42;98501.03;;;27.72;100.00
8416;BME280;4245;42.120;24.732;2023-07-02T13:05:08;98504.00;;;27.41;100.00
8416;BME280;4245;42.120;24.732;2023-07-02T13:07:35;98498.69;;;27.34;100.00
8416;BME280;4245;42.120;24.732;2023-07-02T13:10:02;98506.88;;;27.46;100.00
8416;BME280;4245;42.120;24.732;2023-07-02T13:12:30;98499.13;;;27.31;100.00
8416;BME280;4245;42.120;24.732;2023-07-02T13:14:56;98500.31;;;27.23;100.00
8416;BME280;4245;42.120;24.732;2023-07-02T13:17:24;98490.19;;;27.12;100.00
8416;BME280;4245;42.120;24.732;2023-07-02T13:19:51;98494.63;;;27.25;100.00
8416;BME280;4245;42.120;24.732;2023-07-02T13:22:18;98493.97;;;27.11;100.00